Portada
METAR-TAF:

METAR-TAF

Aeroports :

Panama City, Florida, Estats Units d'Amèrica

latitud: 30-21-30N, longitud: 85-47-44W, altitud: 5 m

Observació

L'informe es va fer fa 51 minuts, a les 02:53 UTC
Vent calma
Temperatura 26°C
Humitat 89%
Pressió 1021 hPa
Visibilitat: 16.1 km
Escasses núvols a una alçada de 6500 ft

METAR: KECP 210253Z AUTO 00000KT 10SM FEW065 26/24 A3014 RMK AO1 SLP216 60000 T02560239 53013 $

Hora: 22:44 (03:44 UTC)

Pronòstic

L'informe es va fer fa 4 hores i 24 minuts, a les 23:20 UTC
Pronòstic vàlid del 21 a les 00 UTC al 21 a les 24 UTC
Vent 5 kt del Nord-Est
Visibilitat: 10 km
Núvols disperses a una alçada de 5000 ft
A partir de les 21 a les 0200 UTC
Vent 5 kt del Nord/Nord-Est
Visibilitat: 10 km
Escasses núvols a una alçada de 15000 ft
A partir de les 21 a les 1600 UTC
Vent 8 kt del Est/Nord-Est
Visibilitat: 10 km
Núvols disperses a una alçada de 5000 ft

TAF: KECP 202320Z 2100/2124 05005KT P6SM SCT050 FM210200 03005KT P6SM FEW150 FM211600 06008KT P6SM SCT050

Observacions i pronòstics meteorològics de més de 4000 aeroports (METAR i TAF).

Les estacions disponibles són els punts grocs i vermells al mapa.

Posi el ratolí al punt desitjat per veure el nom de l'estació.

Feu clic per veure les observacions i els pronòstics meteorològics.

Per canviar el mapa: feu clic els botons verds amb una creu de color negre per apropar; al botó verd amb un guió per allunyar la imatge; o en les fletxes verdes per a mapes adjacents.


METAR-TAF: